PTKR  Koror, Palau, NWS Office Airport

Add Bookmark

Federated States of Micronesia

Status
Operational
Latitude Longitude
7° 19' 48" N 134° 28' 47" E
7.330000 134.480000
Local (DST + 9) UTC (GMT + 9)
Dec 19, 2014 05:13 Dec 18, 2014 20:13
Sunrise-Sunset Local UTC
Begin Civil Twilight 05:44 20:44
Sunrise 06:06 21:06
Sunset 05:51 08:51
End Civil Twilight 06:13 09:13

Current Weather

METAR Observed VFR
PTKR 181953Z 10005KT 15SM FEW017 SCT110 OVC300 27/25 A2980 Thu, Dec 18, 2014 @ 19:53 UTC
(20 Minutes ago)
Visual Flight Rules
Wind Visibility Clouds Conditions
100° at 5 knots (9 kph) 24000 meters
  • Few at 1,700' AGL
  • Scattered at 11,000' AGL
  • Overcast at 30,000' AGL
  • No significant weather
Temperatures Readings Precipitation
Current Temp 27°C (81°F)
Dewpoint 25°C (77°F)
Heat Index 31°C (88°F)
Humidity 89%
Altimeter 29.8"Hg
Sea Level Pressure 1009.2mb
Field Elevation 98.43'
None Recorded

Additional weather within a 92.6km radius of PTKR

Map ICAO Location
PTRO 8.1km N (360°)

24 Hour Weather History

Loading
-

24 Hour Weather Graphs

Loading
-

CheckWX.com is intended as a tool to help pilots better visualize weather data. It is not intended as a substitute for an official weather briefing obtained from a Flight Service Station. CheckWX.com does not meet the FAA requirements for an official pre-flight weather briefing. Therefore, it's important that pilots still call and obtain an official FSS pre-flight weather briefing.